sensor_id;sensor_type;location;lat;lon;timestamp;temperature;humidity
18260;DHT22;9256;52.236;5.712;2023-06-22T00:00:12;17.50;99.90
18260;DHT22;9256;52.236;5.712;2023-06-22T00:02:39;17.50;99.90
18260;DHT22;9256;52.236;5.712;2023-06-22T00:05:06;17.40;99.90
18260;DHT22;9256;52.236;5.712;2023-06-22T00:07:33;17.40;99.90
18260;DHT22;9256;52.236;5.712;2023-06-22T00:10:00;17.20;99.90
18260;DHT22;9256;52.236;5.712;2023-06-22T00:12:28;17.20;99.90
18260;DHT22;9256;52.236;5.712;2023-06-22T00:14:55;17.20;99.90
18260;DHT22;9256;52.236;5.712;2023-06-22T00:17:22;17.20;99.90
18260;DHT22;9256;52.236;5.712;2023-06-22T00:19:49;17.20;99.90
18260;DHT22;9256;52.236;5.712;2023-06-22T00:22:19;17.20;99.90
18260;DHT22;9256;52.236;5.712;2023-06-22T00:24:54;17.20;99.90
18260;DHT22;9256;52.236;5.712;2023-06-22T00:27:21;17.20;99.90
18260;DHT22;9256;52.236;5.712;2023-06-22T00:29:49;17.20;99.90
18260;DHT22;9256;52.236;5.712;2023-06-22T00:32:16;17.10;99.90
18260;DHT22;9256;52.236;5.712;2023-06-22T00:34:44;17.10;99.90
18260;DHT22;9256;52.236;5.712;2023-06-22T00:37:11;17.00;99.90
18260;DHT22;9256;52.236;5.712;2023-06-22T00:39:38;16.80;99.90
18260;DHT22;9256;52.236;5.712;2023-06-22T00:42:05;16.80;99.90
18260;DHT22;9256;52.236;5.712;2023-06-22T00:44:32;16.80;99.90
18260;DHT22;9256;52.236;5.712;2023-06-22T00:47:00;16.70;99.90
18260;DHT22;9256;52.236;5.712;2023-06-22T00:49:27;16.70;99.90
18260;DHT22;9256;52.236;5.712;2023-06-22T00:51:55;16.70;99.90
18260;DHT22;9256;52.236;5.712;2023-06-22T00:54:22;16.70;99.90
18260;DHT22;9256;52.236;5.712;2023-06-22T00:56:50;16.70;99.90
18260;DHT22;9256;52.236;5.712;2023-06-22T00:59:20;16.70;99.90
18260;DHT22;9256;52.236;5.712;2023-06-22T01:01:47;16.60;99.90
18260;DHT22;9256;52.236;5.712;2023-06-22T01:04:15;16.60;99.90
18260;DHT22;9256;52.236;5.712;2023-06-22T01:06:47;16.60;99.90
18260;DHT22;9256;52.236;5.712;2023-06-22T01:09:25;16.50;99.90
18260;DHT22;9256;52.236;5.712;2023-06-22T01:11:58;16.50;99.90
18260;DHT22;9256;52.236;5.712;2023-06-22T01:14:30;16.50;99.90
18260;DHT22;9256;52.236;5.712;2023-06-22T01:17:00;16.50;99.90
18260;DHT22;9256;52.236;5.712;2023-06-22T01:19:37;16.50;99.90
18260;DHT22;9256;52.236;5.712;2023-06-22T01:22:24;16.50;99.90
18260;DHT22;9256;52.236;5.712;2023-06-22T01:28:29;16.40;99.90
18260;DHT22;9256;52.236;5.712;2023-06-22T01:30:58;16.30;99.90
18260;DHT22;9256;52.236;5.712;2023-06-22T01:33:34;16.10;99.90
18260;DHT22;9256;52.236;5.712;2023-06-22T01:36:02;16.10;99.90
18260;DHT22;9256;52.236;5.712;2023-06-22T01:38:30;16.00;99.90
18260;DHT22;9256;52.236;5.712;2023-06-22T01:40:58;16.00;99.90
18260;DHT22;9256;52.236;5.712;2023-06-22T01:43:26;16.00;99.90
18260;DHT22;9256;52.236;5.712;2023-06-22T01:45:56;16.00;99.90
18260;DHT22;9256;52.236;5.712;2023-06-22T01:48:23;16.00;99.90
18260;DHT22;9256;52.236;5.712;2023-06-22T01:50:52;16.10;99.90
18260;DHT22;9256;52.236;5.712;2023-06-22T01:53:20;16.10;99.90
18260;DHT22;9256;52.236;5.712;2023-06-22T01:55:47;16.10;99.90
18260;DHT22;9256;52.236;5.712;2023-06-22T01:58:15;16.00;99.90
18260;DHT22;9256;52.236;5.712;2023-06-22T02:00:47;16.00;99.90
18260;DHT22;9256;52.236;5.712;2023-06-22T02:03:18;15.90;99.90
18260;DHT22;9256;52.236;5.712;2023-06-22T02:05:54;15.80;99.90
18260;DHT22;9256;52.236;5.712;2023-06-22T02:08:24;15.80;99.90
18260;DHT22;9256;52.236;5.712;2023-06-22T02:10:52;15.80;99.90
18260;DHT22;9256;52.236;5.712;2023-06-22T02:13:20;15.70;99.90
18260;DHT22;9256;52.236;5.712;2023-06-22T02:15:48;15.70;99.90
18260;DHT22;9256;52.236;5.712;2023-06-22T02:18:16;15.70;99.90
18260;DHT22;9256;52.236;5.712;2023-06-22T02:20:43;15.80;99.90
18260;DHT22;9256;52.236;5.712;2023-06-22T02:23:10;15.70;99.90
18260;DHT22;9256;52.236;5.712;2023-06-22T02:25:37;15.70;99.90
18260;DHT22;9256;52.236;5.712;2023-06-22T02:28:05;15.70;99.90
18260;DHT22;9256;52.236;5.712;2023-06-22T02:30:32;15.70;99.90
18260;DHT22;9256;52.236;5.712;2023-06-22T02:32:59;15.80;99.90
18260;DHT22;9256;52.236;5.712;2023-06-22T02:35:28;15.70;99.90
18260;DHT22;9256;52.236;5.712;2023-06-22T02:37:57;15.70;99.90
18260;DHT22;9256;52.236;5.712;2023-06-22T02:40:24;15.60;99.90
18260;DHT22;9256;52.236;5.712;2023-06-22T02:42:51;15.60;99.90
18260;DHT22;9256;52.236;5.712;2023-06-22T02:45:18;15.60;99.90
18260;DHT22;9256;52.236;5.712;2023-06-22T02:47:45;15.60;99.90
18260;DHT22;9256;52.236;5.712;2023-06-22T02:50:16;15.40;99.90
18260;DHT22;9256;52.236;5.712;2023-06-22T02:52:44;15.40;99.90
18260;DHT22;9256;52.236;5.712;2023-06-22T02:55:11;15.40;99.90
18260;DHT22;9256;52.236;5.712;2023-06-22T02:57:38;15.30;99.90
18260;DHT22;9256;52.236;5.712;2023-06-22T03:00:11;15.30;99.90
18260;DHT22;9256;52.236;5.712;2023-06-22T03:02:42;15.30;99.90
18260;DHT22;9256;52.236;5.712;2023-06-22T03:05:10;15.30;99.90
18260;DHT22;9256;52.236;5.712;2023-06-22T03:07:39;15.40;99.90
18260;DHT22;9256;52.236;5.712;2023-06-22T03:10:09;15.40;99.90
18260;DHT22;9256;52.236;5.712;2023-06-22T03:12:36;15.30;99.90
18260;DHT22;9256;52.236;5.712;2023-06-22T03:15:05;15.40;99.90
18260;DHT22;9256;52.236;5.712;2023-06-22T03:17:32;15.40;99.90
18260;DHT22;9256;52.236;5.712;2023-06-22T03:19:59;15.40;99.90
18260;DHT22;9256;52.236;5.712;2023-06-22T03:22:26;15.40;99.90
18260;DHT22;9256;52.236;5.712;2023-06-22T03:24:53;15.40;99.90
18260;DHT22;9256;52.236;5.712;2023-06-22T03:27:22;15.30;99.90
18260;DHT22;9256;52.236;5.712;2023-06-22T03:29:48;15.20;99.90
18260;DHT22;9256;52.236;5.712;2023-06-22T03:32:15;15.20;99.90
18260;DHT22;9256;52.236;5.712;2023-06-22T03:34:42;15.30;99.90
18260;DHT22;9256;52.236;5.712;2023-06-22T03:37:13;15.30;99.90
18260;DHT22;9256;52.236;5.712;2023-06-22T03:39:40;15.30;99.90
18260;DHT22;9256;52.236;5.712;2023-06-22T03:42:07;15.30;99.90
18260;DHT22;9256;52.236;5.712;2023-06-22T03:44:35;15.40;99.90
18260;DHT22;9256;52.236;5.712;2023-06-22T03:47:03;15.40;99.90
18260;DHT22;9256;52.236;5.712;2023-06-22T03:49:32;15.40;99.90
18260;DHT22;9256;52.236;5.712;2023-06-22T03:51:59;15.60;99.90
18260;DHT22;9256;52.236;5.712;2023-06-22T03:54:27;15.60;99.90
18260;DHT22;9256;52.236;5.712;2023-06-22T03:56:54;15.70;99.90
18260;DHT22;9256;52.236;5.712;2023-06-22T03:59:21;15.70;99.90
18260;DHT22;9256;52.236;5.712;2023-06-22T04:01:49;15.80;99.90
18260;DHT22;9256;52.236;5.712;2023-06-22T04:04:17;15.70;99.90
18260;DHT22;9256;52.236;5.712;2023-06-22T04:06:44;15.70;99.90
18260;DHT22;9256;52.236;5.712;2023-06-22T04:09:11;15.60;99.90
18260;DHT22;9256;52.236;5.712;2023-06-22T04:11:38;15.70;99.90
18260;DHT22;9256;52.236;5.712;2023-06-22T04:14:05;15.70;99.90
18260;DHT22;9256;52.236;5.712;2023-06-22T04:16:32;15.70;99.90
18260;DHT22;9256;52.236;5.712;2023-06-22T04:19:01;15.70;99.90
18260;DHT22;9256;52.236;5.712;2023-06-22T04:21:28;15.70;99.90
18260;DHT22;9256;52.236;5.712;2023-06-22T04:23:54;15.80;99.90
18260;DHT22;9256;52.236;5.712;2023-06-22T04:26:21;15.80;99.90
18260;DHT22;9256;52.236;5.712;2023-06-22T04:28:48;15.70;99.90
18260;DHT22;9256;52.236;5.712;2023-06-22T04:31:17;15.80;99.90
18260;DHT22;9256;52.236;5.712;2023-06-22T04:33:44;15.90;99.90
18260;DHT22;9256;52.236;5.712;2023-06-22T04:36:13;16.00;99.90
18260;DHT22;9256;52.236;5.712;2023-06-22T04:38:40;16.10;99.90
18260;DHT22;9256;52.236;5.712;2023-06-22T04:41:08;16.10;99.90
18260;DHT22;9256;52.236;5.712;2023-06-22T04:43:49;16.00;99.90
18260;DHT22;9256;52.236;5.712;2023-06-22T04:46:19;15.90;99.90
18260;DHT22;9256;52.236;5.712;2023-06-22T04:48:46;15.90;99.90
18260;DHT22;9256;52.236;5.712;2023-06-22T04:51:14;15.90;99.90
18260;DHT22;9256;52.236;5.712;2023-06-22T04:53:41;15.90;99.90
18260;DHT22;9256;52.236;5.712;2023-06-22T04:56:08;16.00;99.90
18260;DHT22;9256;52.236;5.712;2023-06-22T04:58:35;16.10;99.90
18260;DHT22;9256;52.236;5.712;2023-06-22T05:01:02;16.20;99.90
18260;DHT22;9256;52.236;5.712;2023-06-22T05:03:29;16.30;99.90
18260;DHT22;9256;52.236;5.712;2023-06-22T05:05:56;16.50;99.90
18260;DHT22;9256;52.236;5.712;2023-06-22T05:08:24;16.50;99.90
18260;DHT22;9256;52.236;5.712;2023-06-22T05:10:54;16.60;99.90
18260;DHT22;9256;52.236;5.712;2023-06-22T05:13:21;16.70;99.90
18260;DHT22;9256;52.236;5.712;2023-06-22T05:15:52;16.80;99.90
18260;DHT22;9256;52.236;5.712;2023-06-22T05:18:26;16.80;99.90
18260;DHT22;9256;52.236;5.712;2023-06-22T05:20:54;16.90;99.90
18260;DHT22;9256;52.236;5.712;2023-06-22T05:23:21;16.90;99.90
18260;DHT22;9256;52.236;5.712;2023-06-22T05:25:50;16.90;99.90
18260;DHT22;9256;52.236;5.712;2023-06-22T05:28:17;17.00;99.90
18260;DHT22;9256;52.236;5.712;2023-06-22T05:30:48;17.10;99.90
18260;DHT22;9256;52.236;5.712;2023-06-22T05:33:15;17.20;99.90
18260;DHT22;9256;52.236;5.712;2023-06-22T05:35:42;17.30;99.90
18260;DHT22;9256;52.236;5.712;2023-06-22T05:38:09;17.30;99.90
18260;DHT22;9256;52.236;5.712;2023-06-22T05:40:36;17.40;99.90
18260;DHT22;9256;52.236;5.712;2023-06-22T05:43:04;17.50;99.90
18260;DHT22;9256;52.236;5.712;2023-06-22T05:45:31;17.70;99.90
18260;DHT22;9256;52.236;5.712;2023-06-22T05:47:58;17.80;99.90
18260;DHT22;9256;52.236;5.712;2023-06-22T05:50:24;17.80;99.90
18260;DHT22;9256;52.236;5.712;2023-06-22T05:52:51;17.90;99.90
18260;DHT22;9256;52.236;5.712;2023-06-22T05:55:18;18.20;99.90
18260;DHT22;9256;52.236;5.712;2023-06-22T05:57:45;18.40;99.90
18260;DHT22;9256;52.236;5.712;2023-06-22T06:00:14;18.60;99.90
18260;DHT22;9256;52.236;5.712;2023-06-22T06:02:41;18.80;99.90
18260;DHT22;9256;52.236;5.712;2023-06-22T06:05:10;18.80;99.90
18260;DHT22;9256;52.236;5.712;2023-06-22T06:07:37;18.80;99.90
18260;DHT22;9256;52.236;5.712;2023-06-22T06:10:04;18.90;99.90
18260;DHT22;9256;52.236;5.712;2023-06-22T06:12:31;19.10;99.90
18260;DHT22;9256;52.236;5.712;2023-06-22T06:14:58;19.30;99.90
18260;DHT22;9256;52.236;5.712;2023-06-22T06:17:27;19.40;99.90
18260;DHT22;9256;52.236;5.712;2023-06-22T06:19:53;19.50;99.90
18260;DHT22;9256;52.236;5.712;2023-06-22T06:22:21;19.50;99.90
18260;DHT22;9256;52.236;5.712;2023-06-22T06:24:49;19.50;99.90
18260;DHT22;9256;52.236;5.712;2023-06-22T06:27:16;19.50;99.90
18260;DHT22;9256;52.236;5.712;2023-06-22T06:29:44;19.50;99.90
18260;DHT22;9256;52.236;5.712;2023-06-22T06:32:14;19.60;99.90
18260;DHT22;9256;52.236;5.712;2023-06-22T06:34:42;19.80;99.90
18260;DHT22;9256;52.236;5.712;2023-06-22T06:37:09;19.90;99.90
18260;DHT22;9256;52.236;5.712;2023-06-22T06:39:36;20.00;99.90
18260;DHT22;9256;52.236;5.712;2023-06-22T06:42:04;20.20;99.90
18260;DHT22;9256;52.236;5.712;2023-06-22T06:44:31;20.30;99.90
18260;DHT22;9256;52.236;5.712;2023-06-22T06:46:58;20.40;99.90
18260;DHT22;9256;52.236;5.712;2023-06-22T06:49:25;20.40;99.90
18260;DHT22;9256;52.236;5.712;2023-06-22T06:51:53;20.50;99.90
18260;DHT22;9256;52.236;5.712;2023-06-22T06:54:21;20.50;99.90
18260;DHT22;9256;52.236;5.712;2023-06-22T06:56:48;20.80;99.90
18260;DHT22;9256;52.236;5.712;2023-06-22T06:59:15;20.60;99.90
18260;DHT22;9256;52.236;5.712;2023-06-22T07:01:42;20.70;99.90
18260;DHT22;9256;52.236;5.712;2023-06-22T07:04:10;20.80;99.90
18260;DHT22;9256;52.236;5.712;2023-06-22T07:06:37;20.90;99.90
18260;DHT22;9256;52.236;5.712;2023-06-22T07:09:06;21.20;99.90
18260;DHT22;9256;52.236;5.712;2023-06-22T07:11:33;21.10;99.90
18260;DHT22;9256;52.236;5.712;2023-06-22T07:14:01;21.30;99.90
18260;DHT22;9256;52.236;5.712;2023-06-22T07:16:28;21.30;99.90
18260;DHT22;9256;52.236;5.712;2023-06-22T07:18:56;21.60;99.90
18260;DHT22;9256;52.236;5.712;2023-06-22T07:21:23;21.80;99.90
18260;DHT22;9256;52.236;5.712;2023-06-22T07:23:50;21.80;99.90
18260;DHT22;9256;52.236;5.712;2023-06-22T07:26:18;21.70;99.90
18260;DHT22;9256;52.236;5.712;2023-06-22T07:28:45;21.80;99.90
18260;DHT22;9256;52.236;5.712;2023-06-22T07:31:12;22.20;99.90
18260;DHT22;9256;52.236;5.712;2023-06-22T07:33:39;22.40;99.90
18260;DHT22;9256;52.236;5.712;2023-06-22T07:36:06;22.40;99.90
18260;DHT22;9256;52.236;5.712;2023-06-22T07:38:33;22.40;99.90
18260;DHT22;9256;52.236;5.712;2023-06-22T07:41:01;22.30;99.90
18260;DHT22;9256;52.236;5.712;2023-06-22T07:43:32;22.50;99.90
18260;DHT22;9256;52.236;5.712;2023-06-22T07:45:59;22.70;99.90
18260;DHT22;9256;52.236;5.712;2023-06-22T07:48:26;22.80;99.90
18260;DHT22;9256;52.236;5.712;2023-06-22T07:50:53;22.90;99.90
18260;DHT22;9256;52.236;5.712;2023-06-22T07:53:20;23.30;99.90
18260;DHT22;9256;52.236;5.712;2023-06-22T07:55:48;23.50;99.90
18260;DHT22;9256;52.236;5.712;2023-06-22T07:58:15;23.60;99.90
18260;DHT22;9256;52.236;5.712;2023-06-22T08:00:46;23.70;99.90
18260;DHT22;9256;52.236;5.712;2023-06-22T08:03:14;23.40;99.90
18260;DHT22;9256;52.236;5.712;2023-06-22T08:05:41;23.20;99.90
18260;DHT22;9256;52.236;5.712;2023-06-22T08:08:08;23.30;99.90
18260;DHT22;9256;52.236;5.712;2023-06-22T08:10:35;23.20;99.90
18260;DHT22;9256;52.236;5.712;2023-06-22T08:13:01;23.10;99.90
18260;DHT22;9256;52.236;5.712;2023-06-22T08:15:28;23.40;99.90
18260;DHT22;9256;52.236;5.712;2023-06-22T08:17:57;23.40;99.90
18260;DHT22;9256;52.236;5.712;2023-06-22T08:20:25;23.40;99.90
18260;DHT22;9256;52.236;5.712;2023-06-22T08:22:54;23.30;99.90
18260;DHT22;9256;52.236;5.712;2023-06-22T08:25:21;23.40;99.90
18260;DHT22;9256;52.236;5.712;2023-06-22T08:27:48;23.90;99.90
18260;DHT22;9256;52.236;5.712;2023-06-22T08:30:15;24.20;99.90
18260;DHT22;9256;52.236;5.712;2023-06-22T08:32:42;24.50;99.90
18260;DHT22;9256;52.236;5.712;2023-06-22T08:35:10;24.40;99.90
18260;DHT22;9256;52.236;5.712;2023-06-22T08:37:37;24.40;99.90
18260;DHT22;9256;52.236;5.712;2023-06-22T08:40:06;24.30;99.90
18260;DHT22;9256;52.236;5.712;2023-06-22T08:42:33;24.50;99.90
18260;DHT22;9256;52.236;5.712;2023-06-22T08:45:01;24.70;99.90
18260;DHT22;9256;52.236;5.712;2023-06-22T08:47:27;24.70;99.90
18260;DHT22;9256;52.236;5.712;2023-06-22T08:49:54;25.10;99.90
18260;DHT22;9256;52.236;5.712;2023-06-22T08:52:23;25.50;99.90
18260;DHT22;9256;52.236;5.712;2023-06-22T08:54:50;25.30;99.90
18260;DHT22;9256;52.236;5.712;2023-06-22T08:57:17;25.30;99.90
18260;DHT22;9256;52.236;5.712;2023-06-22T08:59:44;24.90;99.90
18260;DHT22;9256;52.236;5.712;2023-06-22T09:02:11;24.80;99.90
18260;DHT22;9256;52.236;5.712;2023-06-22T09:04:38;24.90;99.90
18260;DHT22;9256;52.236;5.712;2023-06-22T09:07:05;24.70;99.90
18260;DHT22;9256;52.236;5.712;2023-06-22T09:09:33;24.70;99.90
18260;DHT22;9256;52.236;5.712;2023-06-22T09:12:00;25.00;99.90
18260;DHT22;9256;52.236;5.712;2023-06-22T09:14:27;24.90;99.90
18260;DHT22;9256;52.236;5.712;2023-06-22T09:16:54;25.30;99.90
18260;DHT22;9256;52.236;5.712;2023-06-22T09:19:21;25.60;99.90
18260;DHT22;9256;52.236;5.712;2023-06-22T09:21:48;25.80;99.90
18260;DHT22;9256;52.236;5.712;2023-06-22T09:24:15;25.50;99.90
18260;DHT22;9256;52.236;5.712;2023-06-22T09:26:43;25.30;99.90
18260;DHT22;9256;52.236;5.712;2023-06-22T09:29:10;25.20;99.90
18260;DHT22;9256;52.236;5.712;2023-06-22T09:31:37;25.10;99.90
18260;DHT22;9256;52.236;5.712;2023-06-22T09:34:04;25.30;99.90
18260;DHT22;9256;52.236;5.712;2023-06-22T09:36:31;25.40;99.90
18260;DHT22;9256;52.236;5.712;2023-06-22T09:38:58;25.40;99.90
18260;DHT22;9256;52.236;5.712;2023-06-22T09:41:31;25.50;99.90
18260;DHT22;9256;52.236;5.712;2023-06-22T09:43:59;25.70;99.90
18260;DHT22;9256;52.236;5.712;2023-06-22T09:46:26;26.10;99.90
18260;DHT22;9256;52.236;5.712;2023-06-22T09:48:54;26.20;99.90
18260;DHT22;9256;52.236;5.712;2023-06-22T09:51:21;26.20;99.90
18260;DHT22;9256;52.236;5.712;2023-06-22T09:53:49;26.00;99.90
18260;DHT22;9256;52.236;5.712;2023-06-22T09:56:16;25.60;99.90
18260;DHT22;9256;52.236;5.712;2023-06-22T09:58:44;25.80;99.90
18260;DHT22;9256;52.236;5.712;2023-06-22T10:01:13;25.80;99.90
18260;DHT22;9256;52.236;5.712;2023-06-22T10:03:40;26.00;99.90
18260;DHT22;9256;52.236;5.712;2023-06-22T10:06:08;25.80;99.90
18260;DHT22;9256;52.236;5.712;2023-06-22T10:08:35;26.00;99.90
18260;DHT22;9256;52.236;5.712;2023-06-22T10:11:03;26.00;99.90
18260;DHT22;9256;52.236;5.712;2023-06-22T10:13:30;26.00;99.90
18260;DHT22;9256;52.236;5.712;2023-06-22T10:15:57;26.20;99.90
18260;DHT22;9256;52.236;5.712;2023-06-22T10:18:26;26.30;99.90
18260;DHT22;9256;52.236;5.712;2023-06-22T10:20:52;25.90;99.90
18260;DHT22;9256;52.236;5.712;2023-06-22T10:23:20;25.60;99.90
18260;DHT22;9256;52.236;5.712;2023-06-22T10:25:47;25.40;99.90
18260;DHT22;9256;52.236;5.712;2023-06-22T10:28:14;25.20;99.90
18260;DHT22;9256;52.236;5.712;2023-06-22T10:30:41;25.00;99.90
18260;DHT22;9256;52.236;5.712;2023-06-22T10:33:08;24.90;99.90
18260;DHT22;9256;52.236;5.712;2023-06-22T10:35:36;24.90;99.90
18260;DHT22;9256;52.236;5.712;2023-06-22T10:38:04;24.80;99.90
18260;DHT22;9256;52.236;5.712;2023-06-22T10:40:31;24.80;99.90
18260;DHT22;9256;52.236;5.712;2023-06-22T10:42:58;24.80;99.90
18260;DHT22;9256;52.236;5.712;2023-06-22T10:45:25;24.70;99.90
18260;DHT22;9256;52.236;5.712;2023-06-22T10:47:53;24.60;99.90
18260;DHT22;9256;52.236;5.712;2023-06-22T10:50:20;24.60;99.90
18260;DHT22;9256;52.236;5.712;2023-06-22T10:52:50;24.50;99.90
18260;DHT22;9256;52.236;5.712;2023-06-22T10:55:18;24.40;99.90
18260;DHT22;9256;52.236;5.712;2023-06-22T10:57:44;24.50;99.90
18260;DHT22;9256;52.236;5.712;2023-06-22T11:00:14;24.40;99.90
18260;DHT22;9256;52.236;5.712;2023-06-22T11:02:41;24.50;99.90
18260;DHT22;9256;52.236;5.712;2023-06-22T11:05:08;24.70;99.90
18260;DHT22;9256;52.236;5.712;2023-06-22T11:07:36;24.80;99.90
18260;DHT22;9256;52.236;5.712;2023-06-22T11:10:05;24.60;99.90
18260;DHT22;9256;52.236;5.712;2023-06-22T11:12:32;24.80;99.90
18260;DHT22;9256;52.236;5.712;2023-06-22T11:14:59;24.70;99.90
18260;DHT22;9256;52.236;5.712;2023-06-22T11:17:26;24.90;99.90
18260;DHT22;9256;52.236;5.712;2023-06-22T11:19:53;24.90;99.90
18260;DHT22;9256;52.236;5.712;2023-06-22T11:22:20;25.20;99.90
18260;DHT22;9256;52.236;5.712;2023-06-22T11:24:47;25.30;99.90
18260;DHT22;9256;52.236;5.712;2023-06-22T11:27:15;25.40;99.90
18260;DHT22;9256;52.236;5.712;2023-06-22T11:29:42;25.30;99.90
18260;DHT22;9256;52.236;5.712;2023-06-22T11:32:09;25.50;99.90
18260;DHT22;9256;52.236;5.712;2023-06-22T11:34:36;25.40;99.90
18260;DHT22;9256;52.236;5.712;2023-06-22T11:37:03;25.50;99.90
18260;DHT22;9256;52.236;5.712;2023-06-22T11:39:30;25.60;99.90
18260;DHT22;9256;52.236;5.712;2023-06-22T11:41:57;25.30;99.90
18260;DHT22;9256;52.236;5.712;2023-06-22T11:44:25;25.20;99.90
18260;DHT22;9256;52.236;5.712;2023-06-22T11:46:52;25.20;99.90
18260;DHT22;9256;52.236;5.712;2023-06-22T11:49:19;25.20;99.90
18260;DHT22;9256;52.236;5.712;2023-06-22T11:51:46;25.20;99.90
18260;DHT22;9256;52.236;5.712;2023-06-22T11:54:13;25.00;99.90
18260;DHT22;9256;52.236;5.712;2023-06-22T11:56:40;25.00;99.90
18260;DHT22;9256;52.236;5.712;2023-06-22T11:59:07;25.00;99.90
18260;DHT22;9256;52.236;5.712;2023-06-22T12:01:35;24.90;99.90
18260;DHT22;9256;52.236;5.712;2023-06-22T12:04:02;24.80;99.90
18260;DHT22;9256;52.236;5.712;2023-06-22T12:06:31;24.80;99.90
18260;DHT22;9256;52.236;5.712;2023-06-22T12:08:58;24.90;99.90
18260;DHT22;9256;52.236;5.712;2023-06-22T12:11:25;24.70;99.90
18260;DHT22;9256;52.236;5.712;2023-06-22T12:13:52;24.90;99.90
18260;DHT22;9256;52.236;5.712;2023-06-22T12:16:19;24.80;99.90
18260;DHT22;9256;52.236;5.712;2023-06-22T12:18:48;24.90;99.90
18260;DHT22;9256;52.236;5.712;2023-06-22T12:21:15;24.90;99.90
18260;DHT22;9256;52.236;5.712;2023-06-22T12:23:42;24.90;99.90
18260;DHT22;9256;52.236;5.712;2023-06-22T12:26:09;24.70;99.90
18260;DHT22;9256;52.236;5.712;2023-06-22T12:28:36;24.60;99.90
18260;DHT22;9256;52.236;5.712;2023-06-22T12:31:03;24.70;99.90
18260;DHT22;9256;52.236;5.712;2023-06-22T12:33:30;24.70;99.90
18260;DHT22;9256;52.236;5.712;2023-06-22T12:35:58;24.50;99.90
18260;DHT22;9256;52.236;5.712;2023-06-22T12:38:25;24.50;99.90
18260;DHT22;9256;52.236;5.712;2023-06-22T12:40:52;24.50;99.90
18260;DHT22;9256;52.236;5.712;2023-06-22T12:43:19;24.50;99.90
18260;DHT22;9256;52.236;5.712;2023-06-22T12:45:45;24.30;99.90
18260;DHT22;9256;52.236;5.712;2023-06-22T12:48:12;24.40;99.90
18260;DHT22;9256;52.236;5.712;2023-06-22T12:50:39;24.40;99.90
18260;DHT22;9256;52.236;5.712;2023-06-22T12:53:07;24.40;99.90
18260;DHT22;9256;52.236;5.712;2023-06-22T12:55:34;24.30;99.90
18260;DHT22;9256;52.236;5.712;2023-06-22T12:58:01;24.20;99.90
18260;DHT22;9256;52.236;5.712;2023-06-22T13:00:28;24.30;99.90
18260;DHT22;9256;52.236;5.712;2023-06-22T13:02:55;24.30;99.90
18260;DHT22;9256;52.236;5.712;2023-06-22T13:05:22;24.30;99.90
18260;DHT22;9256;52.236;5.712;2023-06-22T13:07:49;24.30;99.90
18260;DHT22;9256;52.236;5.712;2023-06-22T13:10:17;24.30;99.90
18260;DHT22;9256;52.236;5.712;2023-06-22T13:12:44;24.30;99.90
18260;DHT22;9256;52.236;5.712;2023-06-22T13:15:11;24.30;99.90
18260;DHT22;9256;52.236;5.712;2023-06-22T13:17:38;24.10;99.90
18260;DHT22;9256;52.236;5.712;2023-06-22T13:20:06;24.00;99.90
18260;DHT22;9256;52.236;5.712;2023-06-22T13:22:34;23.70;99.90
18260;DHT22;9256;52.236;5.712;2023-06-22T13:25:06;23.60;99.90
18260;DHT22;9256;52.236;5.712;2023-06-22T13:27:34;23.50;99.90
18260;DHT22;9256;52.236;5.712;2023-06-22T13:30:01;23.30;99.90
18260;DHT22;9256;52.236;5.712;2023-06-22T13:32:29;23.10;99.90
18260;DHT22;9256;52.236;5.712;2023-06-22T13:34:56;23.10;99.90
18260;DHT22;9256;52.236;5.712;2023-06-22T13:37:23;23.10;99.90
18260;DHT22;9256;52.236;5.712;2023-06-22T13:39:50;23.00;99.90
18260;DHT22;9256;52.236;5.712;2023-06-22T13:42:16;22.90;99.90
18260;DHT22;9256;52.236;5.712;2023-06-22T13:44:45;22.80;99.90
18260;DHT22;9256;52.236;5.712;2023-06-22T13:47:12;22.90;99.90
18260;DHT22;9256;52.236;5.712;2023-06-22T13:49:38;22.90;99.90
18260;DHT22;9256;52.236;5.712;2023-06-22T13:52:06;22.90;99.90
18260;DHT22;9256;52.236;5.712;2023-06-22T13:54:35;22.80;99.90
18260;DHT22;9256;52.236;5.712;2023-06-22T13:57:02;23.00;99.90
18260;DHT22;9256;52.236;5.712;2023-06-22T13:59:29;23.10;99.90
18260;DHT22;9256;52.236;5.712;2023-06-22T14:01:58;23.20;99.90
18260;DHT22;9256;52.236;5.712;2023-06-22T14:04:24;23.20;99.90
18260;DHT22;9256;52.236;5.712;2023-06-22T14:06:52;23.20;99.90
18260;DHT22;9256;52.236;5.712;2023-06-22T14:09:18;22.90;99.90
18260;DHT22;9256;52.236;5.712;2023-06-22T14:11:45;22.70;99.90
18260;DHT22;9256;52.236;5.712;2023-06-22T14:14:12;22.60;99.90
18260;DHT22;9256;52.236;5.712;2023-06-22T14:16:39;22.60;99.90
18260;DHT22;9256;52.236;5.712;2023-06-22T14:19:07;22.40;99.90
18260;DHT22;9256;52.236;5.712;2023-06-22T14:21:34;22.50;99.90
18260;DHT22;9256;52.236;5.712;2023-06-22T14:24:01;22.40;99.90
18260;DHT22;9256;52.236;5.712;2023-06-22T14:26:28;22.50;99.90
18260;DHT22;9256;52.236;5.712;2023-06-22T14:28:55;22.50;99.90
18260;DHT22;9256;52.236;5.712;2023-06-22T14:31:22;22.40;99.90
18260;DHT22;9256;52.236;5.712;2023-06-22T14:33:49;22.30;99.90
18260;DHT22;9256;52.236;5.712;2023-06-22T14:36:18;22.20;99.90
18260;DHT22;9256;52.236;5.712;2023-06-22T14:38:45;22.10;99.90
18260;DHT22;9256;52.236;5.712;2023-06-22T14:41:12;22.10;99.90
18260;DHT22;9256;52.236;5.712;2023-06-22T14:43:44;22.10;99.90
18260;DHT22;9256;52.236;5.712;2023-06-22T14:46:11;22.00;99.90
18260;DHT22;9256;52.236;5.712;2023-06-22T14:48:38;21.90;99.90
18260;DHT22;9256;52.236;5.712;2023-06-22T14:51:05;21.70;99.90
18260;DHT22;9256;52.236;5.712;2023-06-22T14:53:34;21.60;99.90
18260;DHT22;9256;52.236;5.712;2023-06-22T14:56:01;21.30;99.90
18260;DHT22;9256;52.236;5.712;2023-06-22T14:58:28;21.20;99.90
18260;DHT22;9256;52.236;5.712;2023-06-22T15:00:55;21.10;99.90
18260;DHT22;9256;52.236;5.712;2023-06-22T15:03:22;21.20;99.90
18260;DHT22;9256;52.236;5.712;2023-06-22T15:05:53;21.30;99.90
18260;DHT22;9256;52.236;5.712;2023-06-22T15:08:20;21.40;99.90
18260;DHT22;9256;52.236;5.712;2023-06-22T15:10:49;21.30;99.90
18260;DHT22;9256;52.236;5.712;2023-06-22T15:13:16;21.30;99.90
18260;DHT22;9256;52.236;5.712;2023-06-22T15:15:43;21.20;99.90
18260;DHT22;9256;52.236;5.712;2023-06-22T15:18:10;20.90;99.90
18260;DHT22;9256;52.236;5.712;2023-06-22T15:20:37;20.70;99.90
18260;DHT22;9256;52.236;5.712;2023-06-22T15:23:05;20.60;99.90
18260;DHT22;9256;52.236;5.712;2023-06-22T15:25:32;20.60;99.90
18260;DHT22;9256;52.236;5.712;2023-06-22T15:28:02;20.60;99.90
18260;DHT22;9256;52.236;5.712;2023-06-22T15:30:29;20.50;99.90
18260;DHT22;9256;52.236;5.712;2023-06-22T15:32:56;20.50;99.90
18260;DHT22;9256;52.236;5.712;2023-06-22T15:35:23;20.50;99.90
18260;DHT22;9256;52.236;5.712;2023-06-22T15:37:50;20.50;99.90
18260;DHT22;9256;52.236;5.712;2023-06-22T15:40:17;20.50;99.90
18260;DHT22;9256;52.236;5.712;2023-06-22T15:42:44;20.60;99.90
18260;DHT22;9256;52.236;5.712;2023-06-22T15:45:14;20.70;99.90
18260;DHT22;9256;52.236;5.712;2023-06-22T15:47:41;20.70;99.90
18260;DHT22;9256;52.236;5.712;2023-06-22T15:50:08;20.50;99.90